Time;durP1;ratioP1;P1;durP2;ratioP2;P2;SDS_P1;SDS_P2;PMS_P1;PMS_P2;Temp;Humidity;BMP_temperature;BMP_pressure;BME280_temperature;BME280_humidity;BME280_pressure;Samples;Min_cycle;Max_cycle;Signal;HPM_P1;HPM_P2
2023/06/26 11:58:11;;;;;;;4.50;4.00;;;;;;;27.47;75.22;99958.41;106406;1256;65135;-81
2023/06/26 12:01:00;;;;;;;5.70;4.20;;;;;;;27.59;74.93;99958.76;106549;1254;60481;-81
2023/06/26 12:03:49;;;;;;;4.40;3.50;;;;;;;27.49;76.90;99960.09;106382;1256;64053;-81
2023/06/26 12:06:39;;;;;;;4.00;3.30;;;;;;;27.45;77.31;99957.93;106523;1256;60406;-80
2023/06/26 12:09:27;;;;;;;3.00;2.70;;;;;;;27.52;78.37;99957.43;106612;1252;60344;-81
2023/06/26 12:12:16;;;;;;;2.40;2.20;;;;;;;27.59;78.35;99959.26;106325;1254;65581;-81
2023/06/26 12:15:06;;;;;;;3.00;2.30;;;;;;;27.63;78.28;99953.94;106334;1254;60519;-82
2023/06/26 12:17:54;;;;;;;2.10;1.90;;;;;;;27.73;74.69;99954.61;106365;1253;72447;-81
2023/06/26 12:20:42;;;;;;;4.30;1.50;;;;;;;27.60;74.20;99958.13;106438;1254;60453;-81
2023/06/26 12:23:38;;;;;;;1.50;0.90;;;;;;;27.48;74.05;99956.25;106299;1255;60450;-81
2023/06/26 12:26:27;;;;;;;0.90;0.70;;;;;;;27.60;72.47;99963.33;106472;1254;65237;-81
2023/06/26 12:29:20;;;;;;;0.90;0.80;;;;;;;27.54;73.83;99968.88;106226;1253;60569;-81
2023/06/26 12:32:09;;;;;;;0.90;0.80;;;;;;;27.33;76.25;99966.95;106464;1254;65285;-82
2023/06/26 12:34:58;;;;;;;2.00;0.60;;;;;;;27.28;77.62;99971.53;106520;1254;60460;-81
2023/06/26 12:37:46;;;;;;;3.20;0.70;;;;;;;27.15;78.28;99973.46;106431;1256;59243;-81
2023/06/26 12:40:35;;;;;;;0.80;0.80;;;;;;;27.11;79.22;99981.88;106341;1256;66138;-81
2023/06/26 12:43:26;;;;;;;1.10;0.60;;;;;;;27.08;80.02;99977.23;106306;1254;61110;-81
2023/06/26 12:46:14;;;;;;;3.50;0.60;;;;;;;26.94;83.00;99986.79;106534;1254;64883;-80
2023/06/26 12:49:02;;;;;;;0.50;0.50;;;;;;;26.90;84.69;99983.75;106312;1254;60466;-81
2023/06/26 12:52:14;;;;;;;0.80;0.50;;;;;;;26.94;82.10;99993.84;106314;1254;60588;-82
2023/06/26 12:55:05;;;;;;;2.60;0.70;;;;;;;26.85;81.19;99998.41;106472;1254;66257;-81
2023/06/26 12:57:55;;;;;;;0.60;0.50;;;;;;;26.79;79.79;99999.13;106473;1254;61112;-81
2023/06/26 13:00:43;;;;;;;3.40;0.70;;;;;;;26.54;81.86;100001.52;106545;1254;64057;-80
2023/06/26 13:03:32;;;;;;;3.60;0.80;;;;;;;26.51;83.85;100003.27;106361;1259;60546;-81
2023/06/26 13:06:23;;;;;;;2.10;0.70;;;;;;;26.43;85.85;100008.86;106460;1256;60440;-81
2023/06/26 13:09:14;;;;;;;1.60;0.60;;;;;;;26.26;88.86;100010.83;106394;1260;66206;-81
2023/06/26 13:12:05;;;;;;;0.80;0.60;;;;;;;26.25;90.62;100010.27;106508;1256;61120;-81
2023/06/26 13:14:54;;;;;;;14.40;1.40;;;;;;;26.32;90.47;100007.86;106501;1254;62611;-81
2023/06/26 13:17:43;;;;;;;7.60;0.80;;;;;;;26.28;89.90;100006.58;106241;1254;60553;-82
2023/06/26 13:20:32;;;;;;;0.60;0.60;;;;;;;26.21;90.88;100006.65;106393;1253;60460;-81
2023/06/26 13:23:21;;;;;;;1.40;0.80;;;;;;;26.23;91.03;100007.14;106509;1256;65447;-81
2023/06/26 13:26:09;;;;;;;1.50;0.60;;;;;;;26.14;91.97;100008.89;106401;1256;69642;-81
2023/06/26 13:28:58;;;;;;;1.10;0.60;;;;;;;26.10;92.96;100012.31;106420;1256;64151;-81
2023/06/26 13:31:49;;;;;;;2.70;0.60;;;;;;;26.14;92.49;100011.91;106527;1254;60457;-83
2023/06/26 13:34:38;;;;;;;1.10;0.80;;;;;;;26.42;94.52;100009.48;106505;1256;60492;-81
2023/06/26 13:37:29;;;;;;;1.60;0.50;;;;;;;27.10;93.89;100005.59;106465;1252;65020;-81
2023/06/26 13:40:17;;;;;;;0.80;0.50;;;;;;;27.74;87.16;100004.08;106483;1254;60347;-81
2023/06/26 13:43:05;;;;;;;1.70;0.60;;;;;;;27.97;81.41;100010.11;106627;1253;63904;-83
2023/06/26 13:46:06;;;;;;;1.00;0.70;;;;;;;27.89;78.37;100009.34;106421;1254;60469;-81
2023/06/26 13:48:57;;;;;;;0.60;0.50;;;;;;;27.88;74.51;100011.44;106462;1252;60441;-81
2023/06/26 13:51:48;;;;;;;1.10;0.50;;;;;;;27.72;77.11;100006.67;106475;1257;64122;-82
2023/06/26 13:54:42;;;;;;;1.70;0.40;;;;;;;28.11;74.26;100007.52;106624;1254;60665;-81
2023/06/26 13:57:31;;;;;;;1.50;0.50;;;;;;;28.95;65.07;100004.86;106636;1256;64617;-81
2023/06/26 14:00:21;;;;;;;0.40;0.40;;;;;;;29.67;58.88;100007.84;106476;1256;60437;-83
2023/06/26 14:03:09;;;;;;;4.40;0.50;;;;;;;30.40;57.82;100006.80;106501;1254;60570;-82
2023/06/26 14:05:58;;;;;;;1.90;0.40;;;;;;;31.01;54.81;100010.60;106531;1256;65733;-83
2023/06/26 14:08:47;;;;;;;0.90;0.30;;;;;;;31.26;53.94;100010.08;106438;1256;60561;-81
2023/06/26 14:11:35;;;;;;;0.60;0.50;;;;;;;31.27;50.18;100011.65;106511;1254;64995;-81
2023/06/26 14:14:23;;;;;;;2.30;0.50;;;;;;;30.93;51.23;100004.69;106641;1254;60555;-82
2023/06/26 14:17:15;;;;;;;2.70;0.40;;;;;;;30.93;52.67;99999.62;106467;1257;59259;-83
2023/06/26 14:20:12;;;;;;;;;;;;;;;31.05;51.35;99999.56;106395;1256;65071;-81
2023/06/26 14:23:04;;;;;;;0.80;0.50;;;;;;;31.17;50.26;99995.96;106849;1256;62825;-83
2023/06/26 14:25:52;;;;;;;0.60;0.50;;;;;;;31.59;49.25;99990.58;106482;1252;64029;-82
2023/06/26 14:28:40;;;;;;;1.90;0.40;;;;;;;32.27;48.97;99986.76;106471;1256;60430;-82
2023/06/26 14:31:29;;;;;;;0.80;0.40;;;;;;;32.90;45.25;99984.20;106441;1254;60540;-82
2023/06/26 14:34:18;;;;;;;2.00;0.50;;;;;;;33.35;42.42;99987.79;106510;1256;66532;-82
2023/06/26 14:37:06;;;;;;;1.40;0.60;;;;;;;33.71;40.47;99980.30;106425;1252;60546;-82
2023/06/26 14:39:54;;;;;;;0.70;0.70;;;;;;;33.84;39.35;99978.48;106382;1255;64115;-82
2023/06/26 14:42:43;;;;;;;1.80;0.70;;;;;;;33.53;38.76;99977.91;106558;1257;60482;-82
2023/06/26 14:45:33;;;;;;;0.30;0.30;;;;;;;33.04;39.98;99977.77;106590;1256;60522;-83
2023/06/26 14:48:22;;;;;;;0.50;0.50;;;;;;;32.40;41.40;99976.95;106628;1256;65209;-82
2023/06/26 14:51:10;;;;;;;0.30;0.30;;;;;;;31.97;42.76;99980.56;106351;1254;60555;-82
2023/06/26 14:53:58;;;;;;;1.30;0.50;;;;;;;31.45;44.34;99984.79;106482;1252;62608;-81
2023/06/26 14:56:48;;;;;;;0.40;0.40;;;;;;;30.77;45.89;99982.45;106621;1254;59196;-83
2023/06/26 14:59:37;;;;;;;;;;;;;;;30.10;48.99;99975.19;106471;1254;60480;-82
2023/06/26 15:02:27;;;;;;;3.10;0.50;;;;;;;29.82;50.77;99979.18;106604;1256;65221;-83
2023/06/26 15:05:16;;;;;;;0.80;0.60;;;;;;;29.72;50.92;99980.60;106558;1255;60447;-82
2023/06/26 15:08:09;;;;;;;0.70;0.60;;;;;;;29.26;53.21;99979.17;106716;1259;65369;-81
2023/06/26 15:10:57;;;;;;;1.10;0.50;;;;;;;28.83;56.77;99983.86;106371;1254;60458;-81
2023/06/26 15:13:46;;;;;;;1.00;0.80;;;;;;;28.65;56.34;99985.69;106304;1260;59380;-80
2023/06/26 15:16:37;;;;;;;1.40;0.60;;;;;;;28.55;57.86;99980.79;106337;1257;63964;-82
2023/06/26 15:19:25;;;;;;;3.40;0.70;;;;;;;28.71;56.35;99977.70;106376;1257;60603;-81
2023/06/26 15:22:14;;;;;;;1.90;0.80;;;;;;;28.62;55.44;99975.27;106454;1255;64032;-83
2023/06/26 15:25:03;;;;;;;1.50;1.00;;;;;;;28.36;56.37;99973.04;106511;1256;60491;-81
2023/06/26 15:27:52;;;;;;;1.00;0.80;;;;;;;28.45;55.64;99970.40;106442;1254;60536;-81
2023/06/26 15:30:40;;;;;;;1.40;0.90;;;;;;;28.63;54.41;99969.23;106478;1257;63892;-81
2023/06/26 15:33:30;;;;;;;1.10;0.80;;;;;;;28.73;52.95;99969.72;106421;1254;60504;-83
2023/06/26 15:36:19;;;;;;;0.80;0.70;;;;;;;28.45;54.72;99966.71;106520;1257;62577;-83
2023/06/26 15:39:07;;;;;;;3.10;1.10;;;;;;;28.12;54.46;99970.08;106577;1254;60421;-83
2023/06/26 15:41:55;;;;;;;2.10;1.00;;;;;;;27.91;56.22;99968.52;106513;1253;60463;-83
2023/06/26 15:44:43;;;;;;;2.00;0.80;;;;;;;27.88;57.42;99966.75;106420;1254;65508;-83
2023/06/26 15:47:34;;;;;;;0.90;0.80;;;;;;;27.90;57.53;99964.50;106568;1256;60462;-83
2023/06/26 15:50:23;;;;;;;1.10;0.80;;;;;;;27.96;58.42;99959.58;106547;1254;66031;-83
2023/06/26 15:53:19;;;;;;;1.20;1.10;;;;;;;27.87;59.30;99958.82;106358;1255;60491;-84
2023/06/26 15:56:09;;;;;;;2.60;1.10;;;;;;;27.68;60.56;99960.10;106168;1254;60657;-82
2023/06/26 15:58:58;;;;;;;1.30;0.90;;;;;;;27.45;62.83;99956.33;106360;1254;63943;-83
2023/06/26 16:01:48;;;;;;;1.70;1.00;;;;;;;27.43;63.26;99954.50;106530;1254;60143;-83
2023/06/26 16:04:37;;;;;;;1.30;0.80;;;;;;;27.41;64.09;99954.75;106096;1254;64542;-83
2023/06/26 16:07:26;;;;;;;1.30;1.00;;;;;;;27.60;63.01;99953.55;106355;1254;60456;-83
2023/06/26 16:10:14;;;;;;;1.70;1.00;;;;;;;27.73;61.81;99952.37;105980;1254;423206;-83
2023/06/26 16:13:02;;;;;;;2.30;1.10;;;;;;;27.89;58.85;99951.58;106463;1256;65246;-84
2023/06/26 16:15:52;;;;;;;1.30;0.90;;;;;;;27.93;58.13;99952.92;106338;1254;60530;-83
2023/06/26 16:18:40;;;;;;;4.00;1.10;;;;;;;27.92;58.83;99954.88;106388;1254;63970;-83
2023/06/26 16:21:39;;;;;;;1.30;0.80;;;;;;;27.81;59.17;99958.83;106468;1254;60456;-84
2023/06/26 16:24:28;;;;;;;2.10;1.20;;;;;;;27.75;59.71;99960.62;106353;1257;59119;-82
2023/06/26 16:27:17;;;;;;;2.10;1.10;;;;;;;27.68;60.71;99958.09;106381;1255;65508;-82
2023/06/26 16:30:08;;;;;;;1.80;1.00;;;;;;;27.48;62.92;99961.85;106450;1254;60433;-83
2023/06/26 16:32:58;;;;;;;1.00;0.90;;;;;;;27.35;63.75;99966.63;106435;1257;63226;-82
2023/06/26 16:35:55;;;;;;;1.90;1.20;;;;;;;27.29;64.35;99963.69;106394;1257;60421;-84
2023/06/26 16:38:44;;;;;;;1.30;1.20;;;;;;;27.33;64.52;99965.74;106319;1252;60406;-83
2023/06/26 16:41:33;;;;;;;15.50;1.60;;;;;;;27.39;63.44;99965.01;106473;1253;63989;-82
2023/06/26 16:44:22;;;;;;;2.70;1.20;;;;;;;27.48;62.67;99964.41;106021;1254;60429;-83
2023/06/26 16:47:11;;;;;;;1.40;1.30;;;;;;;27.58;61.10;99966.14;106276;1255;63762;-83
2023/06/26 16:49:59;;;;;;;1.80;1.20;;;;;;;27.46;60.42;99968.60;106281;1257;60367;-82
2023/06/26 16:52:47;;;;;;;2.50;1.30;;;;;;;27.29;58.98;99971.22;106545;1254;60427;-83
2023/06/26 16:55:36;;;;;;;1.70;1.60;;;;;;;27.30;57.78;99973.14;106467;1256;65503;-83
2023/06/26 16:58:24;;;;;;;1.40;1.20;;;;;;;27.05;59.00;99970.20;106552;1254;60442;-82
2023/06/26 17:01:12;;;;;;;1.60;1.40;;;;;;;26.84;60.14;99970.86;106386;1257;65021;-82
2023/06/26 17:04:00;;;;;;;1.70;1.20;;;;;;;26.76;61.22;99973.35;106377;1254;60456;-82
2023/06/26 17:06:48;;;;;;;2.00;1.50;;;;;;;26.53;62.49;99975.34;106543;1253;60338;-80
2023/06/26 17:09:36;;;;;;;1.80;1.40;;;;;;;26.40;64.00;99977.79;106287;1266;65122;-81
2023/06/26 17:12:26;;;;;;;1.60;1.20;;;;;;;26.34;65.27;99977.87;105883;1254;60544;-80
2023/06/26 17:15:14;;;;;;;1.60;1.30;;;;;;;26.09;67.79;99971.75;106370;1257;62692;-81
2023/06/26 17:18:03;;;;;;;1.30;1.20;;;;;;;26.02;68.29;99972.77;106152;1254;60347;-82
2023/06/26 17:20:51;;;;;;;3.20;1.60;;;;;;;26.09;67.60;99974.30;106129;1257;60482;-82
2023/06/26 17:23:39;;;;;;;2.90;1.50;;;;;;;25.98;69.07;99974.13;106202;1260;65639;-81
2023/06/26 17:26:29;;;;;;;3.80;1.40;;;;;;;26.20;68.79;99975.77;106343;1260;60604;-81
2023/06/26 17:29:17;;;;;;;4.10;2.20;;;;;;;26.35;67.83;99972.83;106272;1257;64563;-81
2023/06/26 17:32:06;;;;;;;2.10;1.60;;;;;;;26.43;67.14;99975.23;106376;1254;60357;-81
2023/06/26 17:34:55;;;;;;;2.10;1.00;;;;;;;26.13;69.09;99978.30;106516;1258;60392;-81
2023/06/26 17:37:44;;;;;;;1.60;1.50;;;;;;;26.04;69.11;99979.08;106222;1252;64113;-81
2023/06/26 17:40:32;;;;;;;2.40;1.50;;;;;;;25.83;70.01;99980.29;106437;1254;60422;-81
2023/06/26 17:43:21;;;;;;;1.80;1.50;;;;;;;25.78;71.17;99982.34;106184;1254;63798;-82
2023/06/26 17:46:09;;;;;;;1.50;1.30;;;;;;;25.43;73.62;99983.77;105901;1255;60463;-81
2023/06/26 17:48:57;;;;;;;2.50;1.10;;;;;;;25.47;73.49;99983.80;106392;1254;60546;-81
2023/06/26 17:51:46;;;;;;;1.80;1.40;;;;;;;25.56;72.79;99985.21;106569;1256;65048;-82
2023/06/26 17:54:34;;;;;;;2.40;1.70;;;;;;;25.15;75.13;99985.27;106244;1254;60896;-82
2023/06/26 17:57:22;;;;;;;3.60;1.40;;;;;;;24.98;77.10;99980.13;106418;1253;72643;-82
2023/06/26 18:00:11;;;;;;;2.60;1.50;;;;;;;24.78;78.17;99980.77;106316;1254;60440;-82
2023/06/26 18:02:59;;;;;;;3.00;1.60;;;;;;;24.79;78.93;99985.81;106537;1256;60440;-82
2023/06/26 18:05:47;;;;;;;2.90;2.00;;;;;;;24.70;79.39;99990.29;106432;1257;73797;-82
2023/06/26 18:08:36;;;;;;;2.80;1.80;;;;;;;24.72;80.04;99987.35;106567;1255;68628;-82
2023/06/26 18:11:24;;;;;;;2.90;2.00;;;;;;;24.74;79.87;99989.84;106376;1257;72738;-83
2023/06/26 18:14:12;;;;;;;4.20;1.80;;;;;;;24.32;83.50;99991.69;106303;1253;60623;-81
2023/06/26 18:17:00;;;;;;;2.30;1.50;;;;;;;24.55;82.65;99988.00;105902;1254;60536;-81
2023/06/26 18:19:49;;;;;;;2.70;2.00;;;;;;;24.37;84.58;99990.78;105865;1254;75088;-81
2023/06/26 18:22:37;;;;;;;3.40;1.70;;;;;;;24.18;87.18;99988.19;105984;1254;68666;-82
2023/06/26 18:25:25;;;;;;;3.00;1.60;;;;;;;24.13;88.72;99990.99;105745;1254;71546;-81
2023/06/26 18:28:13;;;;;;;5.20;1.40;;;;;;;24.08;89.10;99993.49;106439;1254;60485;-82
2023/06/26 18:31:03;;;;;;;2.80;1.50;;;;;;;23.86;91.74;99993.81;106496;1253;60463;-84
2023/06/26 18:33:52;;;;;;;4.50;1.90;;;;;;;23.79;92.90;99996.76;106427;1254;73728;-80
2023/06/26 18:36:40;;;;;;;2.10;1.40;;;;;;;23.77;93.68;99996.81;106432;1257;68636;-80
2023/06/26 18:39:29;;;;;;;4.30;1.70;;;;;;;23.89;93.04;99997.42;105997;1254;71656;-81
2023/06/26 18:42:17;;;;;;;1.80;1.40;;;;;;;23.98;92.15;99994.20;105916;1254;60994;-80
2023/06/26 18:45:05;;;;;;;3.20;1.70;;;;;;;23.99;92.13;99992.38;105924;1253;60546;-80
2023/06/26 18:47:53;;;;;;;2.40;1.80;;;;;;;24.04;91.88;99994.20;106060;1257;74670;-82
2023/06/26 18:50:41;;;;;;;2.20;1.50;;;;;;;23.75;94.57;99996.71;105939;1257;68483;-82
2023/06/26 18:53:30;;;;;;;1.70;1.30;;;;;;;23.59;96.34;99994.48;106421;1254;73919;-82
2023/06/26 18:56:18;;;;;;;3.70;1.60;;;;;;;23.73;95.58;99997.63;106324;1252;60477;-82
2023/06/26 18:59:06;;;;;;;1.80;1.20;;;;;;;23.61;96.84;99996.03;106225;1253;60305;-82
2023/06/26 19:01:55;;;;;;;1.40;1.30;;;;;;;23.41;99.07;100003.72;106552;1254;72662;-82
2023/06/26 19:04:43;;;;;;;1.90;1.30;;;;;;;23.41;99.24;100005.41;106394;1256;68554;-82
2023/06/26 19:07:31;;;;;;;1.60;1.20;;;;;;;23.21;100.00;100011.48;106844;1254;71782;-82
2023/06/26 19:10:20;;;;;;;1.90;1.40;;;;;;;23.17;100.00;100008.09;106119;1257;60641;-82
2023/06/26 19:13:08;;;;;;;2.30;1.80;;;;;;;23.03;100.00;100007.17;106290;1254;60546;-82
2023/06/26 19:15:57;;;;;;;6.00;1.90;;;;;;;23.12;100.00;100008.02;106503;1254;73736;-84
2023/06/26 19:18:45;;;;;;;1.60;1.40;;;;;;;22.84;100.00;100008.73;106538;1253;67372;-80
2023/06/26 19:21:35;;;;;;;4.60;1.60;;;;;;;22.76;100.00;100012.59;105894;1254;72628;-82
2023/06/26 19:24:23;;;;;;;3.60;1.30;;;;;;;22.58;100.00;100009.48;106303;1254;62218;-82
2023/06/26 19:27:11;;;;;;;2.70;1.90;;;;;;;22.73;100.00;100012.84;105844;1257;60504;-81
2023/06/26 19:29:59;;;;;;;2.10;1.40;;;;;;;22.49;100.00;100012.20;105816;1258;73825;-80
2023/06/26 19:32:48;;;;;;;2.20;1.80;;;;;;;22.66;100.00;100012.17;105883;1254;68886;-82
2023/06/26 19:35:36;;;;;;;2.90;1.80;;;;;;;22.41;100.00;100007.84;106000;1253;72537;-81
2023/06/26 19:38:25;;;;;;;1.50;1.40;;;;;;;22.33;100.00;100005.07;105734;1254;62013;-81
2023/06/26 19:41:13;;;;;;;3.80;1.70;;;;;;;22.45;100.00;100007.11;105880;1254;61006;-81
2023/06/26 19:44:01;;;;;;;1.80;1.20;;;;;;;22.73;100.00;100001.79;105977;1257;73997;-81
2023/06/26 19:46:49;;;;;;;5.10;1.40;;;;;;;22.60;100.00;99999.42;105911;1254;69922;-80
2023/06/26 19:49:38;;;;;;;1.70;1.40;;;;;;;22.95;100.00;100002.16;106281;1254;71365;-83
2023/06/26 19:52:26;;;;;;;1.60;1.10;;;;;;;22.99;100.00;100004.21;105799;1254;60802;-81
2023/06/26 19:55:14;;;;;;;2.90;1.20;;;;;;;22.87;100.00;100000.42;106088;1254;61293;-80
2023/06/26 19:58:02;;;;;;;1.40;1.20;;;;;;;22.84;100.00;100000.92;105695;1254;72549;-80
2023/06/26 20:00:50;;;;;;;1.20;1.00;;;;;;;22.81;100.00;100007.49;105834;1254;68483;-80
2023/06/26 20:03:40;;;;;;;1.50;1.20;;;;;;;22.84;100.00;100003.56;105971;1253;72620;-81
2023/06/26 20:06:29;;;;;;;1.70;1.30;;;;;;;22.94;100.00;100003.90;105704;1260;60450;-80
2023/06/26 20:09:17;;;;;;;2.30;1.30;;;;;;;23.07;100.00;99999.26;105889;1256;60280;-78
2023/06/26 20:12:06;;;;;;;1.30;1.20;;;;;;;22.67;100.00;100005.41;105958;1254;73950;-78
2023/06/26 20:14:54;;;;;;;1.10;1.00;;;;;;;22.65;100.00;100007.63;105760;1254;69893;-78
2023/06/26 20:17:42;;;;;;;1.70;1.20;;;;;;;22.68;100.00;100010.47;105860;1254;72049;-78
2023/06/26 20:20:32;;;;;;;1.50;1.40;;;;;;;22.54;100.00;100004.81;105946;1254;60325;-78
2023/06/26 20:23:20;;;;;;;2.00;1.10;;;;;;;22.60;100.00;100007.38;105864;1257;60993;-78
2023/06/26 20:26:08;;;;;;;2.40;1.20;;;;;;;22.57;100.00;100009.07;105900;1256;73818;-78
2023/06/26 20:28:56;;;;;;;2.80;1.20;;;;;;;22.49;100.00;100006.09;105925;1254;68691;-78
2023/06/26 20:31:44;;;;;;;1.10;1.00;;;;;;;22.39;100.00;100001.13;105987;1254;72708;-78
2023/06/26 20:34:32;;;;;;;2.30;0.90;;;;;;;22.36;100.00;99999.73;105809;1253;62017;-78
2023/06/26 20:37:21;;;;;;;1.70;1.10;;;;;;;22.18;100.00;100005.73;106333;1254;60549;-79
2023/06/26 20:40:09;;;;;;;1.40;0.90;;;;;;;22.14;100.00;100000.95;106338;1254;72703;-78
2023/06/26 20:42:58;;;;;;;0.60;0.60;;;;;;;22.10;100.00;100001.29;106478;1256;67336;-81
2023/06/26 20:45:46;;;;;;;2.30;0.90;;;;;;;22.17;100.00;100002.15;106411;1256;71149;-80
2023/06/26 20:48:36;;;;;;;0.80;0.70;;;;;;;22.00;100.00;100007.84;106423;1253;60555;-81
2023/06/26 20:51:25;;;;;;;0.90;0.70;;;;;;;22.07;100.00;100008.29;106406;1254;60545;-80
2023/06/26 20:54:13;;;;;;;0.90;0.80;;;;;;;22.04;100.00;100010.23;106253;1256;73362;-81
2023/06/26 20:57:01;;;;;;;0.70;0.70;;;;;;;22.29;100.00;100014.37;105916;1253;67254;-81
2023/06/26 20:59:49;;;;;;;3.40;1.00;;;;;;;22.01;100.00;100011.06;105821;1252;72624;-81
2023/06/26 21:02:37;;;;;;;1.20;1.00;;;;;;;22.12;100.00;100009.50;105828;1254;60468;-81
2023/06/26 21:05:25;;;;;;;1.20;1.00;;;;;;;21.95;100.00;100010.85;105955;1253;60520;-81
2023/06/26 21:08:14;;;;;;;1.10;1.00;;;;;;;21.81;100.00;100003.34;106227;1254;72627;-81
2023/06/26 21:11:02;;;;;;;1.30;1.20;;;;;;;21.95;100.00;100002.98;105877;1256;67414;-82
2023/06/26 21:13:50;;;;;;;3.10;1.50;;;;;;;21.86;100.00;99999.39;106141;1254;71699;-81
2023/06/26 21:16:38;;;;;;;3.00;1.90;;;;;;;21.87;100.00;99998.85;105802;1253;62914;-81
2023/06/26 21:19:27;;;;;;;2.40;1.60;;;;;;;21.78;100.00;99993.56;105924;1254;60392;-80
2023/06/26 21:22:16;;;;;;;3.40;1.00;;;;;;;21.74;100.00;99995.33;105875;1253;72461;-78
2023/06/26 21:25:08;;;;;;;1.30;0.90;;;;;;;21.70;100.00;99996.51;105832;1254;67617;-80
2023/06/26 21:27:55;;;;;;;1.20;0.90;;;;;;;21.50;100.00;100001.16;106005;1254;72736;-79
2023/06/26 21:30:44;;;;;;;1.20;1.10;;;;;;;21.63;100.00;100005.42;105931;1254;60279;-79
2023/06/26 21:33:32;;;;;;;2.10;1.30;;;;;;;21.72;100.00;100008.72;106123;1253;60510;-78
2023/06/26 21:36:21;;;;;;;1.20;0.90;;;;;;;21.67;100.00;100005.65;105908;1254;73757;-81
2023/06/26 21:39:09;;;;;;;1.50;1.00;;;;;;;21.71;100.00;100011.08;105665;1254;68577;-78
2023/06/26 21:41:57;;;;;;;1.60;1.10;;;;;;;21.63;100.00;100013.38;105744;1259;72982;-78
2023/06/26 21:44:45;;;;;;;2.90;1.00;;;;;;;21.60;100.00;100008.61;105858;1253;62195;-78
2023/06/26 21:47:34;;;;;;;1.10;1.00;;;;;;;21.44;100.00;100009.92;106261;1252;62094;-80
2023/06/26 21:50:22;;;;;;;2.80;1.00;;;;;;;21.59;100.00;100012.55;106174;1257;73657;-78
2023/06/26 21:53:11;;;;;;;2.10;1.10;;;;;;;21.63;100.00;100018.13;106036;1254;69008;-78
2023/06/26 21:55:59;;;;;;;1.50;1.20;;;;;;;21.51;100.00;100019.61;105919;1257;71266;-77
2023/06/26 21:58:47;;;;;;;1.20;1.20;;;;;;;21.47;100.00;100020.41;105831;1254;60510;-81
2023/06/26 22:02:14;;;;;;;0.90;0.80;;;;;;;21.48;100.00;100015.27;105850;1254;60507;-80
2023/06/26 22:05:48;;;;;;;1.40;1.20;;;;;;;21.47;100.00;100017.47;105781;1257;73051;-78
2023/06/26 22:09:21;;;;;;;1.40;1.20;;;;;;;21.40;100.00;100025.80;106169;1256;67414;-81
2023/06/26 22:12:54;;;;;;;1.00;1.00;;;;;;;21.49;100.00;100029.98;106020;1256;72798;-80
2023/06/26 22:16:29;;;;;;;3.00;1.10;;;;;;;21.38;100.00;100023.67;105838;1254;60443;-80
2023/06/26 22:20:05;;;;;;;1.90;1.20;;;;;;;21.28;100.00;100016.46;105997;1254;60405;-80
2023/06/26 22:23:37;;;;;;;1.70;1.30;;;;;;;21.33;100.00;100013.86;105987;1253;72933;-78
2023/06/26 22:27:09;;;;;;;2.50;1.30;;;;;;;21.37;100.00;100011.44;105751;1254;69774;-80
2023/06/26 22:30:42;;;;;;;1.50;1.10;;;;;;;21.25;100.00;100005.21;105908;1256;72613;-77
